Paulina, Louisiana
Current Conditions -  °F | °C
As of 5:55 PM on Friday 28 Nov 2014 (Local Time) from K1L0 Reporting Station
Clear Clear  
Wind Chill: 52°   Ceiling: Unl
Heat Index: 52°   Visibility: 10mi
Dew Point: 45°   Wind: 3mph
Humidity: 77%   Direction: 90°E
Pressure: 30.29"   Gusts: NA
Location:  30.03°N, 90.71°W
Report Text: K1L0 282355Z AUTO 09003KT 10SM CLR 11/07 A3029 RMK AO2 T01110073 10170 20111
Loading
Personal Weather Stations






























Interactive Weather Map New forecast layout! Learn more

10-Day Weather Forecast

Advertisements
Track Severe Weather on mobile